sensor_id;sensor_type;location;lat;lon;timestamp;pressure;altitude;pressure_sealevel;temperature;humidity
49063;BME280;34876;51.464;-0.150;2022-08-03T00:03:10;101331.64;;;25.61;46.99
49063;BME280;34876;51.464;-0.150;2022-08-03T00:05:39;101330.65;;;25.58;47.09
49063;BME280;34876;51.464;-0.150;2022-08-03T00:08:09;101330.77;;;25.60;47.07
49063;BME280;34876;51.464;-0.150;2022-08-03T00:10:38;101328.97;;;25.60;47.03
49063;BME280;34876;51.464;-0.150;2022-08-03T00:13:07;101328.56;;;25.58;47.14
49063;BME280;34876;51.464;-0.150;2022-08-03T00:15:37;101323.97;;;25.58;47.14
49063;BME280;34876;51.464;-0.150;2022-08-03T00:18:07;101321.87;;;25.57;47.16
49063;BME280;34876;51.464;-0.150;2022-08-03T00:20:36;101322.19;;;25.57;47.17
49063;BME280;34876;51.464;-0.150;2022-08-03T00:23:06;101321.93;;;25.56;47.17
49063;BME280;34876;51.464;-0.150;2022-08-03T00:25:35;101319.80;;;25.57;47.19
49063;BME280;34876;51.464;-0.150;2022-08-03T00:28:05;101318.97;;;25.56;47.22
49063;BME280;34876;51.464;-0.150;2022-08-03T00:30:35;101322.27;;;25.56;47.23
49063;BME280;34876;51.464;-0.150;2022-08-03T00:33:04;101322.36;;;25.56;47.25
49063;BME280;34876;51.464;-0.150;2022-08-03T00:35:34;101318.90;;;25.56;47.23
49063;BME280;34876;51.464;-0.150;2022-08-03T00:38:03;101318.75;;;25.56;47.25
49063;BME280;34876;51.464;-0.150;2022-08-03T00:40:33;101315.64;;;25.55;47.25
49063;BME280;34876;51.464;-0.150;2022-08-03T00:43:05;101315.06;;;25.55;47.24
49063;BME280;34876;51.464;-0.150;2022-08-03T00:45:35;101311.25;;;25.55;47.24
49063;BME280;34876;51.464;-0.150;2022-08-03T00:48:06;101311.42;;;25.53;47.33
49063;BME280;34876;51.464;-0.150;2022-08-03T00:50:39;101311.80;;;25.55;47.28
49063;BME280;34876;51.464;-0.150;2022-08-03T00:53:10;101312.58;;;25.54;47.30
49063;BME280;34876;51.464;-0.150;2022-08-03T00:55:39;101309.77;;;25.55;47.28
49063;BME280;34876;51.464;-0.150;2022-08-03T00:58:09;101307.35;;;25.54;47.28
49063;BME280;34876;51.464;-0.150;2022-08-03T01:00:39;101309.87;;;25.53;47.34
49063;BME280;34876;51.464;-0.150;2022-08-03T01:03:10;101308.80;;;25.55;47.30
49063;BME280;34876;51.464;-0.150;2022-08-03T01:05:46;101307.78;;;25.53;47.34
49063;BME280;34876;51.464;-0.150;2022-08-03T01:08:21;101306.50;;;25.54;47.34
49063;BME280;34876;51.464;-0.150;2022-08-03T01:10:56;101311.36;;;25.53;47.32
49063;BME280;34876;51.464;-0.150;2022-08-03T01:13:33;101311.53;;;25.51;47.37
49063;BME280;34876;51.464;-0.150;2022-08-03T01:16:10;101309.90;;;25.53;47.34
49063;BME280;34876;51.464;-0.150;2022-08-03T01:18:44;101310.18;;;25.53;47.34
49063;BME280;34876;51.464;-0.150;2022-08-03T01:21:20;101306.26;;;25.52;47.37
49063;BME280;34876;51.464;-0.150;2022-08-03T01:24:22;101308.53;;;25.51;47.41
49063;BME280;34876;51.464;-0.150;2022-08-03T01:27:08;101308.24;;;25.52;47.40
49063;BME280;34876;51.464;-0.150;2022-08-03T01:30:11;101306.91;;;25.50;47.39
49063;BME280;34876;51.464;-0.150;2022-08-03T01:32:45;101305.81;;;25.49;47.42
49063;BME280;34876;51.464;-0.150;2022-08-03T01:35:21;101307.58;;;25.51;47.38
49063;BME280;34876;51.464;-0.150;2022-08-03T01:40:36;101306.70;;;25.50;47.42
49063;BME280;34876;51.464;-0.150;2022-08-03T01:43:13;101307.67;;;25.50;47.41
49063;BME280;34876;51.464;-0.150;2022-08-03T01:45:43;101310.42;;;25.48;47.50
49063;BME280;34876;51.464;-0.150;2022-08-03T01:48:16;101312.33;;;25.45;47.55
49063;BME280;34876;51.464;-0.150;2022-08-03T01:50:46;101312.55;;;25.45;47.52
49063;BME280;34876;51.464;-0.150;2022-08-03T01:53:18;101318.29;;;25.43;47.56
49063;BME280;34876;51.464;-0.150;2022-08-03T01:55:52;101319.19;;;25.44;47.54
49063;BME280;34876;51.464;-0.150;2022-08-03T01:58:23;101319.01;;;25.43;47.54
49063;BME280;34876;51.464;-0.150;2022-08-03T02:00:55;101318.33;;;25.43;47.59
49063;BME280;34876;51.464;-0.150;2022-08-03T02:03:26;101320.19;;;25.45;47.51
49063;BME280;34876;51.464;-0.150;2022-08-03T02:05:57;101316.94;;;25.44;47.50
49063;BME280;34876;51.464;-0.150;2022-08-03T02:08:28;101319.88;;;25.46;47.44
49063;BME280;34876;51.464;-0.150;2022-08-03T02:10:58;101319.42;;;25.42;47.55
49063;BME280;34876;51.464;-0.150;2022-08-03T02:13:32;101316.50;;;25.45;47.46
49063;BME280;34876;51.464;-0.150;2022-08-03T02:16:03;101319.58;;;25.46;47.43
49063;BME280;34876;51.464;-0.150;2022-08-03T02:18:38;101317.51;;;25.44;47.47
49063;BME280;34876;51.464;-0.150;2022-08-03T02:21:09;101321.47;;;25.46;47.43
49063;BME280;34876;51.464;-0.150;2022-08-03T02:23:40;101318.00;;;25.45;47.41
49063;BME280;34876;51.464;-0.150;2022-08-03T02:26:13;101314.62;;;25.41;47.54
49063;BME280;34876;51.464;-0.150;2022-08-03T02:28:47;101315.31;;;25.35;47.71
49063;BME280;34876;51.464;-0.150;2022-08-03T02:31:20;101310.46;;;25.43;47.50
49063;BME280;34876;51.464;-0.150;2022-08-03T02:33:53;101309.80;;;25.45;47.42
49063;BME280;34876;51.464;-0.150;2022-08-03T02:36:27;101309.51;;;25.44;47.42
49063;BME280;34876;51.464;-0.150;2022-08-03T02:38:59;101311.30;;;25.46;47.38
49063;BME280;34876;51.464;-0.150;2022-08-03T02:41:31;101313.25;;;25.44;47.42
49063;BME280;34876;51.464;-0.150;2022-08-03T02:44:09;101311.73;;;25.42;47.46
49063;BME280;34876;51.464;-0.150;2022-08-03T02:46:41;101309.60;;;25.42;47.49
49063;BME280;34876;51.464;-0.150;2022-08-03T02:49:13;101308.26;;;25.40;47.50
49063;BME280;34876;51.464;-0.150;2022-08-03T02:51:44;101302.54;;;25.43;47.41
49063;BME280;34876;51.464;-0.150;2022-08-03T02:54:16;101302.50;;;25.42;47.43
49063;BME280;34876;51.464;-0.150;2022-08-03T02:56:53;101304.09;;;25.44;47.37
49063;BME280;34876;51.464;-0.150;2022-08-03T02:59:24;101299.63;;;25.44;47.37
49063;BME280;34876;51.464;-0.150;2022-08-03T03:01:55;101298.47;;;25.42;47.43
49063;BME280;34876;51.464;-0.150;2022-08-03T03:04:26;101293.39;;;25.41;47.44
49063;BME280;34876;51.464;-0.150;2022-08-03T03:06:56;101287.37;;;25.41;47.44
49063;BME280;34876;51.464;-0.150;2022-08-03T03:09:26;101283.02;;;25.40;47.43
49063;BME280;34876;51.464;-0.150;2022-08-03T03:11:55;101282.44;;;25.42;47.41
49063;BME280;34876;51.464;-0.150;2022-08-03T03:14:25;101280.85;;;25.43;47.37
49063;BME280;34876;51.464;-0.150;2022-08-03T03:16:55;101278.30;;;25.43;47.37
49063;BME280;34876;51.464;-0.150;2022-08-03T03:19:25;101275.20;;;25.36;47.56
49063;BME280;34876;51.464;-0.150;2022-08-03T03:21:55;101277.22;;;25.43;47.38
49063;BME280;34876;51.464;-0.150;2022-08-03T03:24:27;101275.83;;;25.44;47.37
49063;BME280;34876;51.464;-0.150;2022-08-03T03:26:57;101270.17;;;25.43;47.37
49063;BME280;34876;51.464;-0.150;2022-08-03T03:29:27;101270.01;;;25.45;47.33
49063;BME280;34876;51.464;-0.150;2022-08-03T03:31:56;101268.32;;;25.46;47.33
49063;BME280;34876;51.464;-0.150;2022-08-03T03:34:28;101264.12;;;25.44;47.37
49063;BME280;34876;51.464;-0.150;2022-08-03T03:36:58;101264.88;;;25.46;47.34
49063;BME280;34876;51.464;-0.150;2022-08-03T03:39:28;101269.31;;;25.43;47.38
49063;BME280;34876;51.464;-0.150;2022-08-03T03:41:59;101266.37;;;25.41;47.44
49063;BME280;34876;51.464;-0.150;2022-08-03T03:44:29;101263.64;;;25.42;47.41
49063;BME280;34876;51.464;-0.150;2022-08-03T03:46:58;101267.27;;;25.41;47.43
49063;BME280;34876;51.464;-0.150;2022-08-03T03:49:27;101270.01;;;25.41;47.45
49063;BME280;34876;51.464;-0.150;2022-08-03T03:51:58;101271.99;;;25.43;47.41
49063;BME280;34876;51.464;-0.150;2022-08-03T03:54:39;101273.11;;;25.45;47.35
49063;BME280;34876;51.464;-0.150;2022-08-03T03:57:10;101275.09;;;25.44;47.37
49063;BME280;34876;51.464;-0.150;2022-08-03T03:59:43;101278.74;;;25.45;47.32
49063;BME280;34876;51.464;-0.150;2022-08-03T04:02:13;101280.53;;;25.43;47.38
49063;BME280;34876;51.464;-0.150;2022-08-03T04:04:42;101278.42;;;25.43;47.36
49063;BME280;34876;51.464;-0.150;2022-08-03T04:07:12;101280.63;;;25.42;47.38
49063;BME280;34876;51.464;-0.150;2022-08-03T04:09:44;101277.81;;;25.42;47.38
49063;BME280;34876;51.464;-0.150;2022-08-03T04:12:15;101276.47;;;25.41;47.42
49063;BME280;34876;51.464;-0.150;2022-08-03T04:14:45;101278.23;;;25.41;47.42
49063;BME280;34876;51.464;-0.150;2022-08-03T04:17:18;101283.65;;;25.42;47.39
49063;BME280;34876;51.464;-0.150;2022-08-03T04:19:49;101288.35;;;25.42;47.38
49063;BME280;34876;51.464;-0.150;2022-08-03T04:22:25;101289.61;;;25.42;47.41
49063;BME280;34876;51.464;-0.150;2022-08-03T04:25:06;101290.69;;;25.32;47.65
49063;BME280;34876;51.464;-0.150;2022-08-03T04:27:39;101289.06;;;25.40;47.42
49063;BME280;34876;51.464;-0.150;2022-08-03T04:30:11;101291.85;;;25.39;47.48
49063;BME280;34876;51.464;-0.150;2022-08-03T04:32:42;101293.73;;;25.41;47.42
49063;BME280;34876;51.464;-0.150;2022-08-03T04:35:12;101299.75;;;25.42;47.36
49063;BME280;34876;51.464;-0.150;2022-08-03T04:37:45;101298.39;;;25.40;47.42
49063;BME280;34876;51.464;-0.150;2022-08-03T04:40:19;101295.98;;;25.39;47.42
49063;BME280;34876;51.464;-0.150;2022-08-03T04:42:53;101297.43;;;25.43;47.34
49063;BME280;34876;51.464;-0.150;2022-08-03T04:45:23;101301.35;;;25.42;47.37
49063;BME280;34876;51.464;-0.150;2022-08-03T04:47:53;101301.76;;;25.39;47.40
49063;BME280;34876;51.464;-0.150;2022-08-03T04:50:24;101307.70;;;25.38;47.44
49063;BME280;34876;51.464;-0.150;2022-08-03T04:52:54;101305.62;;;25.33;47.63
49063;BME280;34876;51.464;-0.150;2022-08-03T04:55:25;101307.19;;;25.31;47.65
49063;BME280;34876;51.464;-0.150;2022-08-03T04:57:55;101309.69;;;25.34;47.56
49063;BME280;34876;51.464;-0.150;2022-08-03T05:00:26;101308.04;;;25.36;47.49
49063;BME280;34876;51.464;-0.150;2022-08-03T05:02:55;101309.35;;;25.34;47.51
49063;BME280;34876;51.464;-0.150;2022-08-03T05:05:26;101311.49;;;25.28;48.14
49063;BME280;34876;51.464;-0.150;2022-08-03T05:07:55;101316.44;;;25.37;47.46
49063;BME280;34876;51.464;-0.150;2022-08-03T05:10:26;101320.23;;;25.36;47.51
49063;BME280;34876;51.464;-0.150;2022-08-03T05:12:54;101320.45;;;25.36;47.45
49063;BME280;34876;51.464;-0.150;2022-08-03T05:15:24;101326.43;;;25.36;47.45
49063;BME280;34876;51.464;-0.150;2022-08-03T05:17:53;101324.09;;;25.26;50.08
49063;BME280;34876;51.464;-0.150;2022-08-03T05:20:23;101321.34;;;25.34;47.54
49063;BME280;34876;51.464;-0.150;2022-08-03T05:22:53;101320.53;;;25.34;47.50
49063;BME280;34876;51.464;-0.150;2022-08-03T05:25:24;101324.14;;;25.26;47.78
49063;BME280;34876;51.464;-0.150;2022-08-03T05:27:55;101327.76;;;25.24;49.04
49063;BME280;34876;51.464;-0.150;2022-08-03T05:30:24;101325.39;;;25.35;47.47
49063;BME280;34876;51.464;-0.150;2022-08-03T05:32:53;101326.97;;;25.35;47.46
49063;BME280;34876;51.464;-0.150;2022-08-03T05:35:23;101322.56;;;25.35;47.48
49063;BME280;34876;51.464;-0.150;2022-08-03T05:37:53;101327.90;;;25.37;47.43
49063;BME280;34876;51.464;-0.150;2022-08-03T05:40:23;101327.15;;;25.35;47.46
49063;BME280;34876;51.464;-0.150;2022-08-03T05:42:53;101329.92;;;25.35;47.45
49063;BME280;34876;51.464;-0.150;2022-08-03T05:45:23;101324.02;;;25.33;47.57
49063;BME280;34876;51.464;-0.150;2022-08-03T05:47:54;101322.49;;;25.36;47.48
49063;BME280;34876;51.464;-0.150;2022-08-03T05:50:22;101321.18;;;25.34;47.51
49063;BME280;34876;51.464;-0.150;2022-08-03T05:52:54;101320.58;;;25.34;47.51
49063;BME280;34876;51.464;-0.150;2022-08-03T05:55:25;101321.35;;;25.33;47.54
49063;BME280;34876;51.464;-0.150;2022-08-03T05:57:54;101320.98;;;25.35;47.47
49063;BME280;34876;51.464;-0.150;2022-08-03T06:00:23;101328.45;;;25.35;47.49
49063;BME280;34876;51.464;-0.150;2022-08-03T06:02:52;101327.37;;;25.30;47.65
49063;BME280;34876;51.464;-0.150;2022-08-03T06:05:22;101329.43;;;25.33;47.57
49063;BME280;34876;51.464;-0.150;2022-08-03T06:07:53;101327.23;;;25.36;47.50
49063;BME280;34876;51.464;-0.150;2022-08-03T06:10:23;101326.74;;;25.35;47.50
49063;BME280;34876;51.464;-0.150;2022-08-03T06:12:53;101320.89;;;25.34;47.54
49063;BME280;34876;51.464;-0.150;2022-08-03T06:15:23;101324.72;;;25.37;47.46
49063;BME280;34876;51.464;-0.150;2022-08-03T06:17:51;101328.28;;;25.35;47.56
49063;BME280;34876;51.464;-0.150;2022-08-03T06:20:20;101326.26;;;25.34;47.56
49063;BME280;34876;51.464;-0.150;2022-08-03T06:22:50;101328.83;;;25.36;47.51
49063;BME280;34876;51.464;-0.150;2022-08-03T06:25:21;101323.64;;;25.35;47.54
49063;BME280;34876;51.464;-0.150;2022-08-03T06:27:51;101326.42;;;25.32;47.63
49063;BME280;34876;51.464;-0.150;2022-08-03T06:30:21;101328.07;;;25.28;47.78
49063;BME280;34876;51.464;-0.150;2022-08-03T06:32:51;101327.04;;;25.34;47.61
49063;BME280;34876;51.464;-0.150;2022-08-03T06:35:21;101326.39;;;25.33;47.60
49063;BME280;34876;51.464;-0.150;2022-08-03T06:37:51;101330.28;;;25.34;47.61
49063;BME280;34876;51.464;-0.150;2022-08-03T06:40:22;101332.29;;;25.30;47.80
49063;BME280;34876;51.464;-0.150;2022-08-03T06:42:52;101331.64;;;25.35;47.59
49063;BME280;34876;51.464;-0.150;2022-08-03T06:45:22;101325.94;;;25.36;47.54
49063;BME280;34876;51.464;-0.150;2022-08-03T06:47:59;101324.84;;;25.34;47.61
49063;BME280;34876;51.464;-0.150;2022-08-03T06:50:30;101325.18;;;25.35;47.56
49063;BME280;34876;51.464;-0.150;2022-08-03T06:53:02;101325.48;;;25.22;48.06
49063;BME280;34876;51.464;-0.150;2022-08-03T06:55:32;101324.77;;;25.32;47.69
49063;BME280;34876;51.464;-0.150;2022-08-03T06:58:02;101324.97;;;25.34;47.62
49063;BME280;34876;51.464;-0.150;2022-08-03T07:00:32;101324.91;;;25.27;47.81
49063;BME280;34876;51.464;-0.150;2022-08-03T07:03:02;101321.81;;;25.33;47.67
49063;BME280;34876;51.464;-0.150;2022-08-03T07:05:32;101321.24;;;25.36;47.60
49063;BME280;34876;51.464;-0.150;2022-08-03T07:08:02;101324.93;;;25.34;47.64
49063;BME280;34876;51.464;-0.150;2022-08-03T07:10:32;101322.28;;;25.34;47.64
49063;BME280;34876;51.464;-0.150;2022-08-03T07:13:02;101326.04;;;25.34;47.65
49063;BME280;34876;51.464;-0.150;2022-08-03T07:15:33;101327.48;;;25.38;47.54
49063;BME280;34876;51.464;-0.150;2022-08-03T07:18:03;101329.77;;;25.38;47.54
49063;BME280;34876;51.464;-0.150;2022-08-03T07:20:32;101333.42;;;25.35;47.62
49063;BME280;34876;51.464;-0.150;2022-08-03T07:23:02;101332.79;;;25.38;47.55
49063;BME280;34876;51.464;-0.150;2022-08-03T07:25:32;101335.28;;;25.37;47.60
49063;BME280;34876;51.464;-0.150;2022-08-03T07:28:02;101336.19;;;25.39;47.55
49063;BME280;34876;51.464;-0.150;2022-08-03T07:30:32;101336.17;;;25.32;47.75
49063;BME280;34876;51.464;-0.150;2022-08-03T07:33:00;101337.59;;;25.29;47.84
49063;BME280;34876;51.464;-0.150;2022-08-03T07:35:31;101340.13;;;25.34;47.70
49063;BME280;34876;51.464;-0.150;2022-08-03T07:38:00;101339.24;;;25.34;47.67
49063;BME280;34876;51.464;-0.150;2022-08-03T07:40:30;101338.42;;;25.35;47.65
49063;BME280;34876;51.464;-0.150;2022-08-03T07:43:00;101338.96;;;25.30;48.03
49063;BME280;34876;51.464;-0.150;2022-08-03T07:45:30;101337.87;;;25.22;48.06
49063;BME280;34876;51.464;-0.150;2022-08-03T07:47:59;101335.27;;;25.32;47.78
49063;BME280;34876;51.464;-0.150;2022-08-03T07:50:28;101337.36;;;25.32;47.76
49063;BME280;34876;51.464;-0.150;2022-08-03T07:52:57;101336.75;;;25.21;52.10
49063;BME280;34876;51.464;-0.150;2022-08-03T07:55:26;101337.80;;;25.35;47.70
49063;BME280;34876;51.464;-0.150;2022-08-03T07:58:00;101341.02;;;25.34;47.75
49063;BME280;34876;51.464;-0.150;2022-08-03T08:00:30;101342.51;;;25.40;47.58
49063;BME280;34876;51.464;-0.150;2022-08-03T08:02:59;101345.78;;;25.43;47.47
49063;BME280;34876;51.464;-0.150;2022-08-03T08:05:29;101344.86;;;25.45;47.44
49063;BME280;34876;51.464;-0.150;2022-08-03T08:07:59;101343.98;;;25.41;47.52
49063;BME280;34876;51.464;-0.150;2022-08-03T08:10:29;101346.51;;;25.30;47.88
49063;BME280;34876;51.464;-0.150;2022-08-03T08:12:58;101346.70;;;25.25;48.11
49063;BME280;34876;51.464;-0.150;2022-08-03T08:15:27;101345.28;;;25.28;48.20
49063;BME280;34876;51.464;-0.150;2022-08-03T08:17:59;101342.67;;;25.41;47.55
49063;BME280;34876;51.464;-0.150;2022-08-03T08:20:31;101340.48;;;25.42;47.53
49063;BME280;34876;51.464;-0.150;2022-08-03T08:23:01;101342.90;;;25.46;47.40
49063;BME280;34876;51.464;-0.150;2022-08-03T08:25:31;101347.80;;;25.39;47.62
49063;BME280;34876;51.464;-0.150;2022-08-03T08:28:02;101343.93;;;25.32;47.87
49063;BME280;34876;51.464;-0.150;2022-08-03T08:30:33;101340.69;;;25.40;47.58
49063;BME280;34876;51.464;-0.150;2022-08-03T08:33:02;101336.10;;;25.29;47.89
49063;BME280;34876;51.464;-0.150;2022-08-03T08:35:31;101330.17;;;25.46;47.47
49063;BME280;34876;51.464;-0.150;2022-08-03T08:38:01;101327.45;;;25.61;47.06
49063;BME280;34876;51.464;-0.150;2022-08-03T08:40:31;101323.89;;;25.59;50.56
49063;BME280;34876;51.464;-0.150;2022-08-03T08:43:01;101324.59;;;25.61;47.07
49063;BME280;34876;51.464;-0.150;2022-08-03T08:45:30;101326.38;;;25.59;47.08
49063;BME280;34876;51.464;-0.150;2022-08-03T08:48:01;101329.58;;;25.50;47.43
49063;BME280;34876;51.464;-0.150;2022-08-03T08:50:31;101329.31;;;25.63;47.50
49063;BME280;34876;51.464;-0.150;2022-08-03T08:53:01;101332.80;;;25.53;49.83
49063;BME280;34876;51.464;-0.150;2022-08-03T08:55:31;101328.03;;;25.40;47.72
49063;BME280;34876;51.464;-0.150;2022-08-03T08:58:08;101330.15;;;25.45;47.60
49063;BME280;34876;51.464;-0.150;2022-08-03T09:00:39;101330.75;;;25.46;48.18
49063;BME280;34876;51.464;-0.150;2022-08-03T09:03:08;101332.51;;;25.48;49.39
49063;BME280;34876;51.464;-0.150;2022-08-03T09:05:37;101335.47;;;25.58;47.20
49063;BME280;34876;51.464;-0.150;2022-08-03T09:08:12;101335.12;;;25.53;48.04
49063;BME280;34876;51.464;-0.150;2022-08-03T09:10:41;101338.99;;;25.49;47.43
49063;BME280;34876;51.464;-0.150;2022-08-03T09:13:09;101336.92;;;25.56;47.18
49063;BME280;34876;51.464;-0.150;2022-08-03T09:15:39;101335.96;;;25.50;47.40
49063;BME280;34876;51.464;-0.150;2022-08-03T09:18:11;101333.82;;;25.42;51.14
49063;BME280;34876;51.464;-0.150;2022-08-03T09:20:40;101335.06;;;25.58;47.07
49063;BME280;34876;51.464;-0.150;2022-08-03T09:23:09;101334.55;;;25.23;48.59
49063;BME280;34876;51.464;-0.150;2022-08-03T09:25:40;101336.70;;;25.53;47.56
49063;BME280;34876;51.464;-0.150;2022-08-03T09:28:17;101328.93;;;25.68;46.86
49063;BME280;34876;51.464;-0.150;2022-08-03T09:30:58;101324.89;;;25.47;47.64
49063;BME280;34876;51.464;-0.150;2022-08-03T09:33:27;101331.48;;;25.35;53.15
49063;BME280;34876;51.464;-0.150;2022-08-03T09:35:57;101322.19;;;25.58;48.05
49063;BME280;34876;51.464;-0.150;2022-08-03T09:38:26;101322.45;;;25.79;48.55
49063;BME280;34876;51.464;-0.150;2022-08-03T09:40:55;101321.71;;;25.70;47.43
49063;BME280;34876;51.464;-0.150;2022-08-03T09:43:25;101321.07;;;25.67;51.28
49063;BME280;34876;51.464;-0.150;2022-08-03T09:46:01;101317.86;;;25.90;48.40
49063;BME280;34876;51.464;-0.150;2022-08-03T09:48:31;101309.97;;;26.21;45.67
49063;BME280;34876;51.464;-0.150;2022-08-03T09:51:06;101313.58;;;26.41;45.54
49063;BME280;34876;51.464;-0.150;2022-08-03T09:53:42;101319.86;;;26.26;46.56
49063;BME280;34876;51.464;-0.150;2022-08-03T09:56:11;101313.41;;;26.15;48.57
49063;BME280;34876;51.464;-0.150;2022-08-03T09:58:45;101317.45;;;26.08;45.90
49063;BME280;34876;51.464;-0.150;2022-08-03T10:01:14;101311.63;;;26.11;51.25
49063;BME280;34876;51.464;-0.150;2022-08-03T10:03:57;101311.02;;;26.44;49.71
49063;BME280;34876;51.464;-0.150;2022-08-03T10:06:27;101313.81;;;26.55;45.06
49063;BME280;34876;51.464;-0.150;2022-08-03T10:09:06;101312.29;;;26.86;44.29
49063;BME280;34876;51.464;-0.150;2022-08-03T10:11:36;101317.37;;;26.48;45.03
49063;BME280;34876;51.464;-0.150;2022-08-03T10:14:07;101311.92;;;26.65;45.96
49063;BME280;34876;51.464;-0.150;2022-08-03T10:16:38;101308.25;;;26.43;50.33
49063;BME280;34876;51.464;-0.150;2022-08-03T10:19:08;101306.85;;;26.38;45.45
49063;BME280;34876;51.464;-0.150;2022-08-03T10:21:39;101302.97;;;26.50;50.58
49063;BME280;34876;51.464;-0.150;2022-08-03T10:24:09;101302.72;;;26.58;49.95
49063;BME280;34876;51.464;-0.150;2022-08-03T10:26:39;101299.87;;;26.45;45.18
49063;BME280;34876;51.464;-0.150;2022-08-03T10:29:11;101300.67;;;26.41;49.16
49063;BME280;34876;51.464;-0.150;2022-08-03T10:31:47;101299.14;;;26.37;45.22
49063;BME280;34876;51.464;-0.150;2022-08-03T10:34:21;101306.09;;;26.34;47.14
49063;BME280;34876;51.464;-0.150;2022-08-03T10:36:52;101305.38;;;26.37;45.27
49063;BME280;34876;51.464;-0.150;2022-08-03T10:39:27;101307.50;;;26.16;45.92
49063;BME280;34876;51.464;-0.150;2022-08-03T10:41:57;101300.97;;;26.28;45.91
49063;BME280;34876;51.464;-0.150;2022-08-03T10:44:32;101298.16;;;26.32;45.24
49063;BME280;34876;51.464;-0.150;2022-08-03T10:47:05;101300.82;;;26.43;45.31
49063;BME280;34876;51.464;-0.150;2022-08-03T10:49:35;101297.70;;;26.30;46.80
49063;BME280;34876;51.464;-0.150;2022-08-03T10:52:05;101290.23;;;26.65;51.15
49063;BME280;34876;51.464;-0.150;2022-08-03T10:54:38;101292.84;;;26.68;50.54
49063;BME280;34876;51.464;-0.150;2022-08-03T10:57:42;101291.47;;;26.68;50.50
49063;BME280;34876;51.464;-0.150;2022-08-03T11:00:11;101290.57;;;26.72;45.03
49063;BME280;34876;51.464;-0.150;2022-08-03T11:03:13;101290.51;;;26.53;50.95
49063;BME280;34876;51.464;-0.150;2022-08-03T11:05:44;101292.79;;;26.56;50.54
49063;BME280;34876;51.464;-0.150;2022-08-03T11:08:19;101291.51;;;26.63;44.57
49063;BME280;34876;51.464;-0.150;2022-08-03T11:10:50;101289.22;;;26.45;47.84
49063;BME280;34876;51.464;-0.150;2022-08-03T11:13:23;101281.27;;;26.33;49.93
49063;BME280;34876;51.464;-0.150;2022-08-03T11:15:55;101280.51;;;26.34;51.37
49063;BME280;34876;51.464;-0.150;2022-08-03T11:18:25;101285.63;;;26.37;51.35
49063;BME280;34876;51.464;-0.150;2022-08-03T11:20:57;101284.35;;;26.52;50.74
49063;BME280;34876;51.464;-0.150;2022-08-03T11:23:45;101287.76;;;26.43;50.23
49063;BME280;34876;51.464;-0.150;2022-08-03T11:26:16;101282.84;;;26.43;46.03
49063;BME280;34876;51.464;-0.150;2022-08-03T11:28:47;101284.28;;;26.49;51.76
49063;BME280;34876;51.464;-0.150;2022-08-03T11:31:48;101281.85;;;26.34;52.25
49063;BME280;34876;51.464;-0.150;2022-08-03T11:34:17;101280.96;;;26.21;51.32
49063;BME280;34876;51.464;-0.150;2022-08-03T11:37:22;101280.18;;;26.31;46.88
49063;BME280;34876;51.464;-0.150;2022-08-03T11:39:53;101282.35;;;26.28;45.90
49063;BME280;34876;51.464;-0.150;2022-08-03T11:42:41;101280.68;;;26.36;50.53
49063;BME280;34876;51.464;-0.150;2022-08-03T11:45:11;101278.11;;;26.13;46.48
49063;BME280;34876;51.464;-0.150;2022-08-03T11:47:41;101284.91;;;26.05;49.85
49063;BME280;34876;51.464;-0.150;2022-08-03T11:50:15;101281.02;;;26.17;52.17
49063;BME280;34876;51.464;-0.150;2022-08-03T11:52:46;101283.13;;;26.18;50.45
49063;BME280;34876;51.464;-0.150;2022-08-03T11:55:18;101281.80;;;26.20;50.26
49063;BME280;34876;51.464;-0.150;2022-08-03T11:57:48;101277.62;;;26.10;52.11
49063;BME280;34876;51.464;-0.150;2022-08-03T12:00:25;101275.78;;;26.22;47.78
49063;BME280;34876;51.464;-0.150;2022-08-03T12:02:58;101278.58;;;26.06;52.66
49063;BME280;34876;51.464;-0.150;2022-08-03T12:05:38;101280.99;;;26.15;50.37
49063;BME280;34876;51.464;-0.150;2022-08-03T12:08:09;101283.07;;;26.29;46.48
49063;BME280;34876;51.464;-0.150;2022-08-03T12:10:44;101286.17;;;26.00;52.10
49063;BME280;34876;51.464;-0.150;2022-08-03T12:13:14;101286.57;;;26.04;50.40
49063;BME280;34876;51.464;-0.150;2022-08-03T12:15:50;101287.84;;;25.98;47.24
49063;BME280;34876;51.464;-0.150;2022-08-03T12:18:21;101285.99;;;26.09;47.00
49063;BME280;34876;51.464;-0.150;2022-08-03T12:20:52;101285.03;;;26.11;46.23
49063;BME280;34876;51.464;-0.150;2022-08-03T12:23:31;101286.23;;;26.37;45.75
49063;BME280;34876;51.464;-0.150;2022-08-03T12:26:02;101288.85;;;26.46;52.03
49063;BME280;34876;51.464;-0.150;2022-08-03T12:28:33;101283.51;;;26.50;48.58
49063;BME280;34876;51.464;-0.150;2022-08-03T12:31:03;101283.15;;;26.51;51.99
49063;BME280;34876;51.464;-0.150;2022-08-03T12:33:55;101276.70;;;26.67;50.08
49063;BME280;34876;51.464;-0.150;2022-08-03T12:36:32;101273.96;;;26.63;45.80
49063;BME280;34876;51.464;-0.150;2022-08-03T12:39:08;101276.17;;;26.69;46.82
49063;BME280;34876;51.464;-0.150;2022-08-03T12:41:38;101277.34;;;26.81;51.19
49063;BME280;34876;51.464;-0.150;2022-08-03T12:44:08;101280.59;;;26.81;48.45
49063;BME280;34876;51.464;-0.150;2022-08-03T12:46:39;101273.29;;;26.67;44.94
49063;BME280;34876;51.464;-0.150;2022-08-03T12:49:11;101273.93;;;26.66;50.02
49063;BME280;34876;51.464;-0.150;2022-08-03T12:51:56;101266.55;;;26.70;50.86
49063;BME280;34876;51.464;-0.150;2022-08-03T12:54:27;101268.93;;;26.73;46.31
49063;BME280;34876;51.464;-0.150;2022-08-03T12:56:58;101269.93;;;26.83;51.09
49063;BME280;34876;51.464;-0.150;2022-08-03T12:59:30;101270.05;;;26.74;51.11
49063;BME280;34876;51.464;-0.150;2022-08-03T13:02:00;101271.98;;;26.67;51.11
49063;BME280;34876;51.464;-0.150;2022-08-03T13:04:31;101268.94;;;26.74;45.42
49063;BME280;34876;51.464;-0.150;2022-08-03T13:07:01;101266.65;;;26.56;50.89
49063;BME280;34876;51.464;-0.150;2022-08-03T13:09:41;101268.55;;;26.48;51.76